Terminal Aerodrome Forecast
Issued by NWS

Home | Current Version | Previous Version | Text Only | Print | Product List | Glossary On
Versions: 1 2 3 4 5 6 7 8 9 10 11 12 13 14 15
000
FTUS45 KREV 212339
TAFMMH
TAF
KMMH 212339Z 2200/2224 32005KT P6SM VCSH BKN060
     FM220200 VRB04KT P6SM SCT070
     FM221400 25012G23KT P6SM VCSH SCT050 BKN120
     FM221900 27020G28KT 6SM -SHSN SCT030 BKN050=

USA.gov is the U.S. government's official web portal to all federal, state and local government web resources and services.